Terminal Aerodrome Forecast
Issued by NWS Tulsa, OK

Home | Current Version | Previous Version | Text Only | Print | Product List | Glossary On
Versions: 1 2 3 4 5 6 7 8 9 10 11 12 13 14 15 16 17 18
000
FTUS44 KTSA 232320
TAFFSM
TAF
KFSM 232320Z 2400/2424 09006KT 4SM -RA BR BKN005
      TEMPO 2402/2406 2SM -TSRA BR OVC003CB
     FM240600 06003KT 5SM -RA BR OVC003
      TEMPO 2406/2410 2SM -TSRA BR OVC003CB
     FM241000 12007KT 3SM -RA VCTS BKN003CB
     FM241600 11005KT 5SM -TSRA BR BKN005CB
      TEMPO 2420/2424 VRB15G25KT 2SM -TSRA BR BKN015CB=

USA.gov is the U.S. government's official web portal to all federal, state and local government web resources and services.